createdAt,value
2023-04-23T00:02:17.068Z,19.25
2023-04-23T00:04:51.938Z,19.24
2023-04-23T00:07:22.311Z,19.24
2023-04-23T00:09:52.811Z,19.23
2023-04-23T00:12:21.080Z,19.20
2023-04-23T00:14:48.400Z,19.12
2023-04-23T00:17:15.363Z,19.17
2023-04-23T00:19:42.346Z,19.14
2023-04-23T00:22:09.330Z,19.14
2023-04-23T00:24:38.934Z,19.12
2023-04-23T00:27:06.577Z,19.08
2023-04-23T00:29:33.539Z,19.09
2023-04-23T00:32:00.746Z,19.07
2023-04-23T00:34:27.729Z,19.02
2023-04-23T00:36:55.153Z,18.98
2023-04-23T00:39:22.477Z,18.97
2023-04-23T00:41:50.516Z,18.93
2023-04-23T00:44:17.648Z,18.89
2023-04-23T00:46:45.177Z,18.87
2023-04-23T00:49:13.894Z,18.84
2023-04-23T00:51:40.819Z,18.80
2023-04-23T00:54:07.814Z,18.76
2023-04-23T00:56:35.214Z,18.74
2023-04-23T00:59:03.359Z,18.71
2023-04-23T01:01:30.389Z,18.67
2023-04-23T01:03:57.984Z,18.64
2023-04-23T01:06:25.233Z,18.59
2023-04-23T01:08:52.195Z,18.58
2023-04-23T01:11:19.665Z,18.54
2023-04-23T01:13:46.569Z,18.52
2023-04-23T01:16:13.480Z,18.50
2023-04-23T01:18:41.103Z,18.48
2023-04-23T01:21:11.650Z,18.48
2023-04-23T01:23:39.004Z,18.42
2023-04-23T01:26:06.279Z,18.48
2023-04-23T01:28:33.878Z,18.48
2023-04-23T01:31:01.590Z,18.49
2023-04-23T01:33:32.010Z,18.50
2023-04-23T01:36:00.204Z,18.51
2023-04-23T01:38:30.892Z,18.51
2023-04-23T01:40:57.861Z,18.52
2023-04-23T01:43:25.471Z,18.53
2023-04-23T01:45:53.227Z,18.52
2023-04-23T01:48:20.809Z,18.53
2023-04-23T01:50:48.504Z,18.52
2023-04-23T01:53:15.584Z,18.51
2023-04-23T01:55:46.118Z,18.51
2023-04-23T01:58:13.427Z,18.50
2023-04-23T02:00:40.481Z,18.52
2023-04-23T02:03:07.523Z,18.48
2023-04-23T02:05:36.048Z,18.53
2023-04-23T02:08:03.618Z,18.55
2023-04-23T02:10:31.745Z,18.55
2023-04-23T02:12:59.344Z,18.60
2023-04-23T02:15:26.276Z,18.62
2023-04-23T02:17:54.002Z,18.63
2023-04-23T02:20:21.823Z,18.62
2023-04-23T02:22:50.918Z,18.67
2023-04-23T02:25:18.876Z,18.64
2023-04-23T02:27:45.804Z,18.70
2023-04-23T02:30:13.032Z,18.71
2023-04-23T02:32:40.269Z,18.73
2023-04-23T02:35:09.348Z,18.75
2023-04-23T02:37:37.311Z,18.77
2023-04-23T02:40:08.124Z,18.79
2023-04-23T02:42:35.111Z,18.82
2023-04-23T02:45:02.004Z,18.84
2023-04-23T02:47:30.173Z,18.89
2023-04-23T02:49:57.680Z,18.89
2023-04-23T02:52:24.731Z,18.96
2023-04-23T02:54:51.827Z,18.97
2023-04-23T02:57:19.190Z,18.97
2023-04-23T02:59:46.338Z,19.04
2023-04-23T03:02:14.038Z,19.08
2023-04-23T03:04:41.429Z,19.11
2023-04-23T03:07:09.399Z,19.14
2023-04-23T03:09:36.261Z,19.13
2023-04-23T03:12:03.154Z,19.20
2023-04-23T03:14:30.188Z,19.24
2023-04-23T03:16:57.410Z,19.26
2023-04-23T03:19:24.424Z,19.28
2023-04-23T03:21:51.457Z,19.29
2023-04-23T03:24:18.626Z,19.32
2023-04-23T03:26:45.674Z,19.33
2023-04-23T03:29:12.620Z,19.29
2023-04-23T03:31:39.707Z,19.30
2023-04-23T03:34:09.154Z,19.28
2023-04-23T03:36:37.660Z,19.28
2023-04-23T03:39:04.594Z,19.24
2023-04-23T03:41:44.200Z,19.23
2023-04-23T03:44:12.941Z,19.23
2023-04-23T03:46:42.780Z,19.28
2023-04-23T03:49:10.316Z,19.24
2023-04-23T03:51:37.472Z,19.28
2023-04-23T03:54:04.601Z,19.29
2023-04-23T03:56:41.438Z,19.29
2023-04-23T03:59:16.015Z,19.30
2023-04-23T04:01:44.489Z,19.31
2023-04-23T04:04:11.703Z,19.30
2023-04-23T04:06:38.864Z,19.31
2023-04-23T04:09:06.161Z,19.32
2023-04-23T04:11:33.102Z,19.32
2023-04-23T04:14:00.005Z,19.33
2023-04-23T04:16:28.019Z,19.31
2023-04-23T04:18:56.621Z,19.34
2023-04-23T04:21:23.672Z,19.34
2023-04-23T04:23:51.124Z,19.36
2023-04-23T04:26:18.703Z,19.37
2023-04-23T04:28:45.629Z,19.39
2023-04-23T04:31:15.976Z,19.37
2023-04-23T04:33:43.328Z,19.41
2023-04-23T04:36:10.236Z,19.41
2023-04-23T04:38:39.723Z,19.45
2023-04-23T04:41:07.696Z,19.45
2023-04-23T04:43:34.877Z,19.49
2023-04-23T04:46:01.948Z,19.52
2023-04-23T04:48:28.879Z,19.54
2023-04-23T04:50:55.770Z,19.57
2023-04-23T04:53:22.778Z,19.60
2023-04-23T04:55:49.862Z,19.63
2023-04-23T04:58:16.931Z,19.64
2023-04-23T05:00:44.529Z,19.67
2023-04-23T05:03:14.316Z,19.67
2023-04-23T05:05:41.485Z,19.69
2023-04-23T05:08:08.746Z,19.69
2023-04-23T05:10:35.644Z,19.71
2023-04-23T05:13:02.544Z,19.73
2023-04-23T05:15:29.517Z,19.64
2023-04-23T05:17:56.593Z,19.73
2023-04-23T05:20:23.556Z,19.73
2023-04-23T05:22:50.476Z,19.73
2023-04-23T05:25:17.367Z,19.73
2023-04-23T05:27:44.277Z,19.74
2023-04-23T05:30:11.556Z,19.71
2023-04-23T05:32:39.305Z,19.76
2023-04-23T05:35:07.178Z,19.78
2023-04-23T05:37:34.141Z,19.79
2023-04-23T05:40:02.560Z,19.75
2023-04-23T05:42:29.533Z,19.78
2023-04-23T05:44:56.437Z,19.80
2023-04-23T05:47:23.375Z,19.82
2023-04-23T05:49:50.267Z,19.83
2023-04-23T05:52:17.755Z,19.86
2023-04-23T05:54:44.891Z,19.88
2023-04-23T05:57:12.636Z,19.89
2023-04-23T05:59:39.496Z,19.90
2023-04-23T06:02:07.504Z,19.91
2023-04-23T06:04:34.619Z,19.93
2023-04-23T06:07:01.776Z,19.93
2023-04-23T06:09:28.677Z,19.95
2023-04-23T06:11:55.730Z,19.98
2023-04-23T06:14:22.623Z,19.95
2023-04-23T06:16:49.545Z,20.00
2023-04-23T06:19:16.813Z,19.99
2023-04-23T06:21:43.723Z,20.00
2023-04-23T06:24:10.634Z,20.00
2023-04-23T06:26:37.531Z,20.00
2023-04-23T06:29:12.050Z,20.01
2023-04-23T06:31:49.974Z,20.01
2023-04-23T06:34:16.872Z,20.01
2023-04-23T06:36:43.873Z,20.02
2023-04-23T06:39:10.733Z,20.03
2023-04-23T06:41:38.149Z,20.03
2023-04-23T06:44:21.818Z,20.03
2023-04-23T06:46:54.421Z,20.02
2023-04-23T06:49:21.352Z,20.02
2023-04-23T06:51:48.385Z,20.01
2023-04-23T06:54:15.276Z,19.97
2023-04-23T06:56:42.179Z,19.98
2023-04-23T06:59:09.058Z,19.98
2023-04-23T07:01:44.628Z,19.96
2023-04-23T07:04:11.540Z,19.95
2023-04-23T07:06:38.430Z,19.95
2023-04-23T07:09:05.913Z,19.97
2023-04-23T07:11:34.811Z,19.93
2023-04-23T07:14:01.739Z,19.88
2023-04-23T07:16:32.179Z,19.92
2023-04-23T07:19:01.179Z,19.90
2023-04-23T07:21:28.814Z,19.89
2023-04-23T07:23:59.845Z,19.85
2023-04-23T07:26:27.818Z,19.86
2023-04-23T07:28:54.744Z,19.87
2023-04-23T07:31:22.266Z,19.86
2023-04-23T07:33:49.358Z,19.85
2023-04-23T07:36:16.298Z,19.86
2023-04-23T07:38:43.277Z,19.87
2023-04-23T07:41:10.354Z,19.87
2023-04-23T07:43:37.242Z,19.91
2023-04-23T07:46:05.061Z,19.94
2023-04-23T07:48:32.057Z,19.94
2023-04-23T07:50:59.041Z,19.97
2023-04-23T07:53:26.175Z,19.98
2023-04-23T07:55:53.102Z,19.99
2023-04-23T07:58:20.002Z,20.03
2023-04-23T08:00:46.931Z,20.03
2023-04-23T08:03:13.917Z,20.04
2023-04-23T08:05:41.431Z,20.06
2023-04-23T08:08:09.048Z,20.07
2023-04-23T08:10:36.341Z,20.06
2023-04-23T08:13:03.247Z,20.07
2023-04-23T08:15:30.373Z,20.07
2023-04-23T08:17:57.327Z,20.07
2023-04-23T08:20:24.265Z,20.07
2023-04-23T08:22:53.561Z,20.06
2023-04-23T08:25:21.100Z,20.02
2023-04-23T08:27:48.014Z,20.03
2023-04-23T08:30:15.089Z,20.03
2023-04-23T08:32:42.148Z,20.03
2023-04-23T08:35:09.531Z,20.00
2023-04-23T08:37:36.538Z,19.96
2023-04-23T08:40:05.048Z,19.97
2023-04-23T08:43:02.134Z,19.89
2023-04-23T08:45:30.872Z,19.85
2023-04-23T08:48:02.446Z,19.82
2023-04-23T08:50:30.963Z,19.78
2023-04-23T08:52:58.464Z,19.73
2023-04-23T08:55:25.834Z,19.70
2023-04-23T08:57:53.004Z,19.71
2023-04-23T09:00:23.200Z,19.68
2023-04-23T09:02:50.642Z,19.67
2023-04-23T09:05:17.847Z,19.67
2023-04-23T09:07:45.253Z,19.67
2023-04-23T09:10:16.253Z,19.67
2023-04-23T09:12:44.986Z,19.68
2023-04-23T09:15:13.818Z,19.71
2023-04-23T09:17:45.958Z,19.70
2023-04-23T09:20:14.863Z,19.69
2023-04-23T09:22:49.326Z,19.69
2023-04-23T09:25:19.729Z,19.71
2023-04-23T09:27:48.230Z,19.71
2023-04-23T09:30:16.404Z,19.71
2023-04-23T09:32:49.475Z,19.67
2023-04-23T09:35:20.119Z,19.64
2023-04-23T09:37:51.068Z,19.61
2023-04-23T09:40:22.731Z,19.61
2023-04-23T09:42:53.093Z,19.58
2023-04-23T09:45:20.734Z,19.52
2023-04-23T09:47:56.044Z,19.47
2023-04-23T09:50:40.580Z,19.47
2023-04-23T09:53:09.659Z,19.50
2023-04-23T09:55:39.744Z,19.55
2023-04-23T09:58:15.680Z,19.63
2023-04-23T10:00:43.054Z,19.70
2023-04-23T10:03:10.960Z,19.73
2023-04-23T10:05:59.813Z,19.73
2023-04-23T10:08:28.777Z,19.81
2023-04-23T10:11:06.636Z,19.83
2023-04-23T10:13:37.594Z,19.84
2023-04-23T10:16:18.620Z,19.89
2023-04-23T10:18:52.050Z,19.93
2023-04-23T10:21:20.844Z,19.97
2023-04-23T10:23:50.418Z,20.06
2023-04-23T10:26:19.518Z,20.12
2023-04-23T10:28:49.026Z,20.20
2023-04-23T10:31:16.584Z,20.22
2023-04-23T10:33:55.911Z,20.24
2023-04-23T10:36:25.892Z,20.21
2023-04-23T10:38:58.817Z,20.20
2023-04-23T10:41:34.952Z,20.22
2023-04-23T10:44:03.103Z,20.25
2023-04-23T10:46:31.841Z,20.25
2023-04-23T10:49:16.763Z,20.20
2023-04-23T10:54:20.375Z,20.28
2023-04-23T10:57:00.165Z,20.27
2023-04-23T10:59:29.729Z,20.25
2023-04-23T11:01:59.622Z,20.22
2023-04-23T11:04:29.930Z,20.15
2023-04-23T11:07:05.577Z,20.19
2023-04-23T11:09:44.285Z,20.19
2023-04-23T11:12:24.789Z,20.26
2023-04-23T11:14:56.977Z,20.24
2023-04-23T11:17:32.903Z,20.21
2023-04-23T11:20:14.962Z,20.21
2023-04-23T11:22:46.631Z,20.22
2023-04-23T11:25:22.928Z,20.23
2023-04-23T11:27:51.705Z,20.27
2023-04-23T11:30:25.271Z,20.33
2023-04-23T11:32:54.824Z,20.40
2023-04-23T11:35:28.529Z,20.45
2023-04-23T11:37:56.386Z,20.53
2023-04-23T11:40:24.233Z,20.61
2023-04-23T11:42:57.437Z,20.69
2023-04-23T11:45:26.490Z,20.77
2023-04-23T11:47:56.347Z,20.81
2023-04-23T11:50:33.602Z,20.77
2023-04-23T11:53:10.109Z,20.81
2023-04-23T11:55:38.213Z,20.81
2023-04-23T11:58:05.786Z,20.83
2023-04-23T12:00:32.720Z,20.84
2023-04-23T12:03:01.965Z,20.85
2023-04-23T12:05:37.770Z,20.82
2023-04-23T12:08:10.132Z,20.81
2023-04-23T12:11:06.142Z,20.81
2023-04-23T12:13:33.786Z,20.88
2023-04-23T12:16:05.332Z,20.95
2023-04-23T12:18:42.137Z,21.06
2023-04-23T12:21:11.309Z,21.18
2023-04-23T12:23:40.357Z,21.29
2023-04-23T12:26:15.825Z,21.36
2023-04-23T12:28:59.403Z,21.52
2023-04-23T12:31:29.133Z,21.63
2023-04-23T12:34:08.275Z,21.71
2023-04-23T12:36:40.813Z,21.76
2023-04-23T12:39:20.597Z,21.83
2023-04-23T12:41:49.901Z,21.84
2023-04-23T12:44:16.775Z,21.89
2023-04-23T12:46:43.673Z,21.84
2023-04-23T12:49:10.595Z,21.82
2023-04-23T12:51:37.705Z,21.78
2023-04-23T12:54:04.785Z,21.77
2023-04-23T12:56:31.696Z,21.81
2023-04-23T12:59:01.816Z,21.83
2023-04-23T13:01:29.144Z,21.86
2023-04-23T13:03:56.831Z,21.89
2023-04-23T13:06:23.990Z,21.91
2023-04-23T13:08:50.991Z,21.92
2023-04-23T13:11:17.879Z,21.96
2023-04-23T13:13:44.809Z,22.03
2023-04-23T13:16:11.838Z,22.08
2023-04-23T13:18:38.762Z,22.13
2023-04-23T13:21:05.937Z,22.21
2023-04-23T13:23:32.821Z,22.23
2023-04-23T13:25:59.709Z,22.23
2023-04-23T13:28:26.934Z,22.18
2023-04-23T13:30:53.986Z,22.16
2023-04-23T13:33:21.193Z,22.10
2023-04-23T13:35:48.163Z,22.09
2023-04-23T13:38:15.093Z,22.06
2023-04-23T13:40:41.984Z,22.03
2023-04-23T13:43:08.884Z,22.00
2023-04-23T13:45:35.944Z,21.96
2023-04-23T13:48:02.942Z,21.93
2023-04-23T13:50:29.874Z,21.91
2023-04-23T13:52:56.767Z,21.88
2023-04-23T13:55:23.652Z,21.85
2023-04-23T13:57:50.519Z,21.83
2023-04-23T14:00:18.120Z,21.81
2023-04-23T14:02:45.070Z,21.79
2023-04-23T14:05:12.144Z,21.77
2023-04-23T14:07:48.086Z,21.75
2023-04-23T14:10:15.539Z,21.74
2023-04-23T14:12:42.430Z,21.74
2023-04-23T14:15:09.955Z,21.74
2023-04-23T14:17:39.188Z,21.73
2023-04-23T14:20:07.672Z,21.75
2023-04-23T14:22:34.599Z,21.75
2023-04-23T14:25:10.912Z,21.72
2023-04-23T14:27:50.477Z,21.75
2023-04-23T14:30:21.547Z,21.77
2023-04-23T14:32:50.010Z,21.78
2023-04-23T14:35:17.480Z,21.81
2023-04-23T14:37:45.582Z,21.80
2023-04-23T14:40:15.745Z,21.86
2023-04-23T14:42:42.826Z,21.86
2023-04-23T14:45:09.954Z,21.87
2023-04-23T14:47:36.866Z,21.88
2023-04-23T14:50:04.234Z,21.88
2023-04-23T14:52:31.612Z,21.93
2023-04-23T14:54:58.517Z,21.96
2023-04-23T14:57:25.411Z,22.00
2023-04-23T14:59:52.328Z,22.06
2023-04-23T15:02:19.312Z,22.10
2023-04-23T15:04:46.414Z,22.15
2023-04-23T15:07:13.295Z,22.18
2023-04-23T15:09:40.440Z,22.18
2023-04-23T15:12:43.756Z,22.17
2023-04-23T15:15:43.109Z,22.18
2023-04-23T15:18:14.228Z,22.22
2023-04-23T15:20:42.166Z,22.03
2023-04-23T15:23:10.105Z,22.28
2023-04-23T15:25:37.385Z,22.26
2023-04-23T15:28:05.585Z,22.32
2023-04-23T15:30:32.652Z,22.31
2023-04-23T15:32:59.615Z,22.37
2023-04-23T15:35:28.031Z,22.40
2023-04-23T15:37:54.944Z,22.43
2023-04-23T15:40:21.833Z,22.45
2023-04-23T15:42:50.043Z,22.49
2023-04-23T15:45:17.243Z,22.54
2023-04-23T15:47:44.497Z,22.58
2023-04-23T15:50:11.821Z,22.61
2023-04-23T15:52:40.539Z,22.63
2023-04-23T15:55:08.088Z,22.60
2023-04-23T15:57:34.977Z,22.63
2023-04-23T16:00:01.904Z,22.65
2023-04-23T16:02:39.030Z,22.64
2023-04-23T16:05:06.196Z,22.63
2023-04-23T16:07:33.109Z,22.62
2023-04-23T16:10:00.040Z,22.61
2023-04-23T16:12:26.918Z,22.59
2023-04-23T16:14:53.928Z,22.57
2023-04-23T16:17:20.842Z,22.55
2023-04-23T16:19:47.976Z,22.51
2023-04-23T16:22:16.210Z,22.50
2023-04-23T16:24:43.129Z,22.47
2023-04-23T16:27:10.957Z,22.43
2023-04-23T16:29:38.732Z,22.37
2023-04-23T16:32:07.297Z,22.31
2023-04-23T16:34:34.492Z,22.30
2023-04-23T16:37:01.400Z,22.26
2023-04-23T16:39:28.314Z,22.23
2023-04-23T16:41:55.194Z,22.19
2023-04-23T16:44:22.080Z,22.14
2023-04-23T16:46:48.992Z,22.17
2023-04-23T16:49:15.966Z,22.13
2023-04-23T16:51:42.828Z,22.12
2023-04-23T16:54:09.854Z,22.14
2023-04-23T16:56:37.332Z,22.14
2023-04-23T16:59:04.895Z,22.08
2023-04-23T17:01:31.888Z,22.05
2023-04-23T17:03:59.070Z,22.03
2023-04-23T17:06:32.998Z,21.99
2023-04-23T17:09:03.139Z,21.97
2023-04-23T17:11:31.027Z,21.93
2023-04-23T17:13:58.297Z,21.89
2023-04-23T17:16:26.754Z,21.85
2023-04-23T17:18:54.937Z,21.85
2023-04-23T17:21:22.724Z,21.87
2023-04-23T17:23:49.753Z,21.87
2023-04-23T17:26:16.702Z,21.87
2023-04-23T17:28:43.632Z,21.87
2023-04-23T17:31:11.257Z,21.86
2023-04-23T17:33:38.742Z,21.84
2023-04-23T17:36:05.854Z,21.82
2023-04-23T17:38:32.738Z,21.77
2023-04-23T17:40:59.981Z,21.67
2023-04-23T17:43:27.346Z,21.70
2023-04-23T17:45:54.479Z,21.66
2023-04-23T17:48:23.001Z,21.63
2023-04-23T17:50:50.186Z,21.57
2023-04-23T17:53:17.148Z,21.50
2023-04-23T17:55:44.030Z,21.42
2023-04-23T17:58:10.905Z,21.35
2023-04-23T18:00:43.119Z,21.26
2023-04-23T18:03:11.657Z,21.18
2023-04-23T18:05:39.181Z,21.07
2023-04-23T18:08:07.453Z,21.04
2023-04-23T18:10:34.386Z,20.94
2023-04-23T18:13:03.341Z,20.82
2023-04-23T18:15:32.298Z,20.79
2023-04-23T18:17:59.715Z,20.69
2023-04-23T18:20:26.955Z,20.62
2023-04-23T18:22:56.628Z,20.56
2023-04-23T18:25:25.245Z,20.47
2023-04-23T18:27:52.177Z,20.40
2023-04-23T18:30:23.104Z,20.32
2023-04-23T18:33:00.807Z,20.21
2023-04-23T18:35:27.752Z,20.18
2023-04-23T18:38:02.664Z,20.08
2023-04-23T18:40:29.663Z,20.01
2023-04-23T18:42:56.756Z,19.92
2023-04-23T18:45:23.855Z,19.84
2023-04-23T18:47:57.692Z,19.73
2023-04-23T18:50:57.887Z,19.60
2023-04-23T18:53:24.759Z,19.51
2023-04-23T18:55:51.643Z,19.41
2023-04-23T18:58:18.513Z,19.34
2023-04-23T19:00:45.485Z,19.31
2023-04-23T19:03:25.334Z,19.26
2023-04-23T19:05:52.873Z,19.20
2023-04-23T19:08:19.766Z,19.15
2023-04-23T19:10:46.728Z,19.11
2023-04-23T19:13:13.605Z,19.05
2023-04-23T19:15:40.617Z,18.99
2023-04-23T19:18:07.564Z,18.93
2023-04-23T19:20:34.496Z,18.88
2023-04-23T19:23:01.385Z,18.81
2023-04-23T19:25:28.271Z,18.74
2023-04-23T19:27:55.142Z,18.66
2023-04-23T19:30:22.023Z,18.63
2023-04-23T19:32:48.986Z,18.56
2023-04-23T19:35:15.940Z,18.51
2023-04-23T19:37:42.808Z,18.43
2023-04-23T19:40:10.723Z,18.32
2023-04-23T19:42:37.624Z,18.24
2023-04-23T19:45:04.685Z,18.25
2023-04-23T19:47:33.106Z,18.19
2023-04-23T19:50:00.065Z,18.13
2023-04-23T19:52:27.958Z,18.09
2023-04-23T19:54:54.866Z,18.02
2023-04-23T19:57:22.258Z,17.95
2023-04-23T19:59:49.465Z,17.84
2023-04-23T20:02:16.863Z,17.81
2023-04-23T20:04:44.049Z,17.73
2023-04-23T20:07:11.128Z,17.66
2023-04-23T20:09:38.130Z,17.58
2023-04-23T20:12:05.330Z,17.51
2023-04-23T20:14:32.230Z,17.45
2023-04-23T20:16:59.318Z,17.38
2023-04-23T20:19:26.245Z,17.33
2023-04-23T20:21:53.696Z,17.24
2023-04-23T20:24:23.210Z,17.20
2023-04-23T20:26:50.334Z,17.11
2023-04-23T20:29:17.239Z,17.06
2023-04-23T20:31:48.732Z,17.02
2023-04-23T20:34:18.878Z,16.97
2023-04-23T20:36:48.910Z,16.91
2023-04-23T20:39:16.778Z,16.84
2023-04-23T20:41:46.389Z,16.77
2023-04-23T20:44:13.302Z,16.71
2023-04-23T20:46:40.508Z,16.66
2023-04-23T20:49:07.417Z,16.59
2023-04-23T20:51:34.455Z,16.54
2023-04-23T20:54:02.222Z,16.49
2023-04-23T20:56:29.790Z,16.44
2023-04-23T20:58:59.885Z,16.40
2023-04-23T21:01:27.283Z,16.33
2023-04-23T21:03:54.743Z,16.30
2023-04-23T21:06:22.210Z,16.26
2023-04-23T21:08:49.334Z,16.22
2023-04-23T21:11:19.090Z,16.16
2023-04-23T21:13:46.923Z,16.11
2023-04-23T21:16:14.220Z,16.04
2023-04-23T21:18:41.921Z,16.02
2023-04-23T21:21:08.819Z,15.97
2023-04-23T21:23:36.259Z,15.92
2023-04-23T21:26:03.592Z,15.84
2023-04-23T21:28:31.430Z,15.85
2023-04-23T21:31:07.719Z,15.76
2023-04-23T21:33:34.647Z,15.77
2023-04-23T21:36:01.576Z,15.73
2023-04-23T21:38:28.518Z,15.70
2023-04-23T21:40:55.454Z,15.67
2023-04-23T21:43:24.305Z,15.62
2023-04-23T21:45:51.402Z,15.59
2023-04-23T21:48:18.412Z,15.56
2023-04-23T21:50:45.363Z,15.54
2023-04-23T21:53:13.082Z,15.51
2023-04-23T21:55:39.986Z,15.48
2023-04-23T21:58:17.337Z,15.44
2023-04-23T22:00:45.773Z,15.40
2023-04-23T22:03:14.665Z,15.37
2023-04-23T22:05:49.348Z,15.33
2023-04-23T22:08:17.204Z,15.31
2023-04-23T22:10:44.681Z,15.28
2023-04-23T22:13:14.269Z,15.25
2023-04-23T22:15:41.326Z,15.22
2023-04-23T22:18:08.610Z,15.20
2023-04-23T22:20:37.536Z,15.19
2023-04-23T22:23:04.470Z,15.18
2023-04-23T22:25:31.384Z,15.15
2023-04-23T22:27:58.489Z,15.13
2023-04-23T22:30:25.409Z,15.10
2023-04-23T22:32:52.312Z,15.06
2023-04-23T22:35:19.297Z,14.99
2023-04-23T22:37:46.219Z,14.94
2023-04-23T22:40:13.101Z,14.90
2023-04-23T22:42:39.965Z,14.89
2023-04-23T22:45:08.334Z,14.88
2023-04-23T22:47:35.234Z,14.88
2023-04-23T22:50:02.268Z,14.83
2023-04-23T22:52:29.140Z,14.86
2023-04-23T22:54:56.847Z,14.85
2023-04-23T22:57:24.456Z,14.85
2023-04-23T22:59:51.355Z,14.83
2023-04-23T23:02:18.415Z,14.85
2023-04-23T23:04:45.893Z,14.77
2023-04-23T23:07:12.976Z,14.82
2023-04-23T23:09:39.869Z,14.81
2023-04-23T23:12:06.738Z,14.81
2023-04-23T23:14:34.005Z,14.78
2023-04-23T23:17:00.856Z,14.77
2023-04-23T23:19:27.998Z,14.75
2023-04-23T23:21:55.032Z,14.73
2023-04-23T23:24:22.383Z,14.67
2023-04-23T23:26:50.353Z,14.69
2023-04-23T23:29:17.247Z,14.63
2023-04-23T23:31:44.250Z,14.67
2023-04-23T23:34:11.762Z,14.66
2023-04-23T23:36:38.709Z,14.60
2023-04-23T23:39:06.694Z,14.62
2023-04-23T23:41:33.882Z,14.60
2023-04-23T23:44:00.833Z,14.57
2023-04-23T23:46:27.983Z,14.52
2023-04-23T23:48:55.022Z,14.52
2023-04-23T23:51:21.916Z,14.49
2023-04-23T23:53:48.936Z,14.49
2023-04-23T23:56:15.855Z,14.47
2023-04-23T23:58:42.761Z,14.45
